sensor_id;sensor_type;location;lat;lon;timestamp;temperature;humidity
569;DHT22;269;48.884;9.192;2022-09-24T00:01:09;12.60;99.90
569;DHT22;269;48.884;9.192;2022-09-24T00:03:39;12.50;99.90
569;DHT22;269;48.884;9.192;2022-09-24T00:06:07;12.40;99.90
569;DHT22;269;48.884;9.192;2022-09-24T00:08:35;12.40;99.90
569;DHT22;269;48.884;9.192;2022-09-24T00:11:04;12.40;99.90
569;DHT22;269;48.884;9.192;2022-09-24T00:13:32;12.30;99.90
569;DHT22;269;48.884;9.192;2022-09-24T00:16:01;12.20;99.90
569;DHT22;269;48.884;9.192;2022-09-24T00:18:29;12.20;99.90
569;DHT22;269;48.884;9.192;2022-09-24T00:20:58;12.10;99.90
569;DHT22;269;48.884;9.192;2022-09-24T00:23:25;12.10;99.90
569;DHT22;269;48.884;9.192;2022-09-24T00:25:52;12.00;99.90
569;DHT22;269;48.884;9.192;2022-09-24T00:28:37;12.00;99.90
569;DHT22;269;48.884;9.192;2022-09-24T00:31:05;12.00;99.90
569;DHT22;269;48.884;9.192;2022-09-24T00:33:33;11.90;99.90
569;DHT22;269;48.884;9.192;2022-09-24T00:36:03;11.80;99.90
569;DHT22;269;48.884;9.192;2022-09-24T00:38:31;11.80;99.90
569;DHT22;269;48.884;9.192;2022-09-24T00:40:58;11.80;99.90
569;DHT22;269;48.884;9.192;2022-09-24T00:43:27;11.80;99.90
569;DHT22;269;48.884;9.192;2022-09-24T00:45:57;11.80;99.90
569;DHT22;269;48.884;9.192;2022-09-24T00:48:29;11.90;99.90
569;DHT22;269;48.884;9.192;2022-09-24T00:50:59;11.90;99.90
569;DHT22;269;48.884;9.192;2022-09-24T00:53:28;11.80;99.90
569;DHT22;269;48.884;9.192;2022-09-24T00:55:59;11.80;99.90
569;DHT22;269;48.884;9.192;2022-09-24T00:58:29;11.80;99.90
569;DHT22;269;48.884;9.192;2022-09-24T01:00:59;11.80;99.90
569;DHT22;269;48.884;9.192;2022-09-24T01:03:31;11.80;99.90
569;DHT22;269;48.884;9.192;2022-09-24T01:05:59;11.80;99.90
569;DHT22;269;48.884;9.192;2022-09-24T01:08:27;11.70;99.90
569;DHT22;269;48.884;9.192;2022-09-24T01:11:08;11.70;99.90
569;DHT22;269;48.884;9.192;2022-09-24T01:13:48;11.80;99.90
569;DHT22;269;48.884;9.192;2022-09-24T01:16:27;11.80;99.90
569;DHT22;269;48.884;9.192;2022-09-24T01:19:05;11.80;99.90
569;DHT22;269;48.884;9.192;2022-09-24T01:21:38;11.80;99.90
569;DHT22;269;48.884;9.192;2022-09-24T01:24:21;11.80;99.90
569;DHT22;269;48.884;9.192;2022-09-24T01:26:59;11.90;99.90
569;DHT22;269;48.884;9.192;2022-09-24T01:32:28;11.90;99.90
569;DHT22;269;48.884;9.192;2022-09-24T01:35:01;11.80;99.90
569;DHT22;269;48.884;9.192;2022-09-24T01:37:32;11.80;99.90
569;DHT22;269;48.884;9.192;2022-09-24T01:40:01;11.90;99.90
569;DHT22;269;48.884;9.192;2022-09-24T01:42:29;11.80;99.90
569;DHT22;269;48.884;9.192;2022-09-24T01:44:59;11.90;99.90
569;DHT22;269;48.884;9.192;2022-09-24T01:47:31;11.90;99.90
569;DHT22;269;48.884;9.192;2022-09-24T01:50:00;11.90;99.90
569;DHT22;269;48.884;9.192;2022-09-24T01:52:30;11.90;99.90
569;DHT22;269;48.884;9.192;2022-09-24T01:55:01;11.80;99.90
569;DHT22;269;48.884;9.192;2022-09-24T01:57:32;11.70;99.90
569;DHT22;269;48.884;9.192;2022-09-24T02:00:03;11.70;99.90
569;DHT22;269;48.884;9.192;2022-09-24T02:02:35;11.70;99.90
569;DHT22;269;48.884;9.192;2022-09-24T02:05:08;11.70;99.90
569;DHT22;269;48.884;9.192;2022-09-24T02:07:43;11.60;99.90
569;DHT22;269;48.884;9.192;2022-09-24T02:10:14;11.60;99.90
569;DHT22;269;48.884;9.192;2022-09-24T02:12:41;11.60;99.90
569;DHT22;269;48.884;9.192;2022-09-24T02:15:12;11.60;99.90
569;DHT22;269;48.884;9.192;2022-09-24T02:17:45;11.60;99.90
569;DHT22;269;48.884;9.192;2022-09-24T02:20:15;11.60;99.90
569;DHT22;269;48.884;9.192;2022-09-24T02:22:46;11.60;99.90
569;DHT22;269;48.884;9.192;2022-09-24T02:25:19;11.70;99.90
569;DHT22;269;48.884;9.192;2022-09-24T02:27:46;11.70;99.90
569;DHT22;269;48.884;9.192;2022-09-24T02:30:13;11.60;99.90
569;DHT22;269;48.884;9.192;2022-09-24T02:32:43;11.70;99.90
569;DHT22;269;48.884;9.192;2022-09-24T02:35:11;11.70;99.90
569;DHT22;269;48.884;9.192;2022-09-24T02:37:39;11.60;99.90
569;DHT22;269;48.884;9.192;2022-09-24T02:40:09;11.60;99.90
569;DHT22;269;48.884;9.192;2022-09-24T02:42:37;11.60;99.90
569;DHT22;269;48.884;9.192;2022-09-24T02:45:06;11.60;99.90
569;DHT22;269;48.884;9.192;2022-09-24T02:47:33;11.60;99.90
569;DHT22;269;48.884;9.192;2022-09-24T02:50:02;11.60;99.90
569;DHT22;269;48.884;9.192;2022-09-24T02:52:29;11.60;99.90
569;DHT22;269;48.884;9.192;2022-09-24T02:54:56;11.60;99.90
569;DHT22;269;48.884;9.192;2022-09-24T02:57:23;11.50;99.90
569;DHT22;269;48.884;9.192;2022-09-24T02:59:50;11.50;99.90
569;DHT22;269;48.884;9.192;2022-09-24T03:02:17;11.50;99.90
569;DHT22;269;48.884;9.192;2022-09-24T03:04:44;11.40;99.90
569;DHT22;269;48.884;9.192;2022-09-24T03:07:13;11.50;99.90
569;DHT22;269;48.884;9.192;2022-09-24T03:09:40;11.40;99.90
569;DHT22;269;48.884;9.192;2022-09-24T03:12:07;11.40;99.90
569;DHT22;269;48.884;9.192;2022-09-24T03:14:34;11.40;99.90
569;DHT22;269;48.884;9.192;2022-09-24T03:17:01;11.40;99.90
569;DHT22;269;48.884;9.192;2022-09-24T03:19:28;11.40;99.90
569;DHT22;269;48.884;9.192;2022-09-24T03:21:55;11.40;99.90
569;DHT22;269;48.884;9.192;2022-09-24T03:24:23;11.40;99.90
569;DHT22;269;48.884;9.192;2022-09-24T03:26:50;11.40;99.90
569;DHT22;269;48.884;9.192;2022-09-24T03:29:17;11.40;99.90
569;DHT22;269;48.884;9.192;2022-09-24T03:32:05;11.40;99.90
569;DHT22;269;48.884;9.192;2022-09-24T03:34:31;11.30;99.90
569;DHT22;269;48.884;9.192;2022-09-24T03:36:58;11.30;99.90
569;DHT22;269;48.884;9.192;2022-09-24T03:39:27;11.30;99.90
569;DHT22;269;48.884;9.192;2022-09-24T03:41:54;11.30;99.90
569;DHT22;269;48.884;9.192;2022-09-24T03:44:21;11.30;99.90
569;DHT22;269;48.884;9.192;2022-09-24T03:46:48;11.30;99.90
569;DHT22;269;48.884;9.192;2022-09-24T03:49:15;11.30;99.90
569;DHT22;269;48.884;9.192;2022-09-24T03:51:42;11.30;99.90
569;DHT22;269;48.884;9.192;2022-09-24T03:54:10;11.30;99.90
569;DHT22;269;48.884;9.192;2022-09-24T03:56:38;11.40;99.90
569;DHT22;269;48.884;9.192;2022-09-24T03:59:05;11.40;99.90
569;DHT22;269;48.884;9.192;2022-09-24T04:01:32;11.30;99.90
569;DHT22;269;48.884;9.192;2022-09-24T04:04:02;11.30;99.90
569;DHT22;269;48.884;9.192;2022-09-24T04:06:29;11.30;99.90
569;DHT22;269;48.884;9.192;2022-09-24T04:08:57;11.30;99.90
569;DHT22;269;48.884;9.192;2022-09-24T04:11:25;11.30;99.90
569;DHT22;269;48.884;9.192;2022-09-24T04:13:53;11.30;99.90
569;DHT22;269;48.884;9.192;2022-09-24T04:16:21;11.30;99.90
569;DHT22;269;48.884;9.192;2022-09-24T04:18:48;11.30;99.90
569;DHT22;269;48.884;9.192;2022-09-24T04:21:15;11.30;99.90
569;DHT22;269;48.884;9.192;2022-09-24T04:23:43;11.30;99.90
569;DHT22;269;48.884;9.192;2022-09-24T04:26:10;11.40;99.90
569;DHT22;269;48.884;9.192;2022-09-24T04:28:37;11.30;99.90
569;DHT22;269;48.884;9.192;2022-09-24T04:31:05;11.40;99.90
569;DHT22;269;48.884;9.192;2022-09-24T04:33:32;11.30;99.90
569;DHT22;269;48.884;9.192;2022-09-24T04:35:59;11.30;99.90
569;DHT22;269;48.884;9.192;2022-09-24T04:38:27;11.30;99.90
569;DHT22;269;48.884;9.192;2022-09-24T04:40:54;11.30;99.90
569;DHT22;269;48.884;9.192;2022-09-24T04:43:21;11.30;99.90
569;DHT22;269;48.884;9.192;2022-09-24T04:45:48;11.30;99.90
569;DHT22;269;48.884;9.192;2022-09-24T04:48:18;11.20;99.90
569;DHT22;269;48.884;9.192;2022-09-24T04:50:45;11.20;99.90
569;DHT22;269;48.884;9.192;2022-09-24T04:53:12;11.10;99.90
569;DHT22;269;48.884;9.192;2022-09-24T04:55:39;11.00;99.90
569;DHT22;269;48.884;9.192;2022-09-24T04:58:06;11.10;99.90
569;DHT22;269;48.884;9.192;2022-09-24T05:00:34;11.10;99.90
569;DHT22;269;48.884;9.192;2022-09-24T05:03:01;11.10;99.90
569;DHT22;269;48.884;9.192;2022-09-24T05:05:31;11.10;99.90
569;DHT22;269;48.884;9.192;2022-09-24T05:07:59;11.10;99.90
569;DHT22;269;48.884;9.192;2022-09-24T05:10:26;11.10;99.90
569;DHT22;269;48.884;9.192;2022-09-24T05:12:53;11.10;99.90
569;DHT22;269;48.884;9.192;2022-09-24T05:15:21;11.10;99.90
569;DHT22;269;48.884;9.192;2022-09-24T05:17:48;11.20;99.90
569;DHT22;269;48.884;9.192;2022-09-24T05:20:15;11.20;99.90
569;DHT22;269;48.884;9.192;2022-09-24T05:22:45;11.20;99.90
569;DHT22;269;48.884;9.192;2022-09-24T05:25:13;11.30;99.90
569;DHT22;269;48.884;9.192;2022-09-24T05:27:44;11.30;99.90
569;DHT22;269;48.884;9.192;2022-09-24T05:30:11;11.20;99.90
569;DHT22;269;48.884;9.192;2022-09-24T05:32:39;11.30;99.90
569;DHT22;269;48.884;9.192;2022-09-24T05:35:06;11.30;99.90
569;DHT22;269;48.884;9.192;2022-09-24T05:37:34;11.30;99.90
569;DHT22;269;48.884;9.192;2022-09-24T05:40:05;11.20;99.90
569;DHT22;269;48.884;9.192;2022-09-24T05:42:47;11.30;99.90
569;DHT22;269;48.884;9.192;2022-09-24T05:45:14;11.20;99.90
569;DHT22;269;48.884;9.192;2022-09-24T05:47:43;11.20;99.90
569;DHT22;269;48.884;9.192;2022-09-24T05:50:11;11.20;99.90
569;DHT22;269;48.884;9.192;2022-09-24T05:52:38;11.20;99.90
569;DHT22;269;48.884;9.192;2022-09-24T05:55:09;11.20;99.90
569;DHT22;269;48.884;9.192;2022-09-24T05:57:36;11.20;99.90
569;DHT22;269;48.884;9.192;2022-09-24T06:00:05;11.30;99.90
569;DHT22;269;48.884;9.192;2022-09-24T06:02:33;11.20;99.90
569;DHT22;269;48.884;9.192;2022-09-24T06:05:00;11.20;99.90
569;DHT22;269;48.884;9.192;2022-09-24T06:07:27;11.20;99.90
569;DHT22;269;48.884;9.192;2022-09-24T06:09:54;11.20;99.90
569;DHT22;269;48.884;9.192;2022-09-24T06:12:25;11.20;99.90
569;DHT22;269;48.884;9.192;2022-09-24T06:14:52;11.30;99.90
569;DHT22;269;48.884;9.192;2022-09-24T06:17:20;11.40;99.90
569;DHT22;269;48.884;9.192;2022-09-24T06:19:47;11.40;99.90
569;DHT22;269;48.884;9.192;2022-09-24T06:22:14;11.40;99.90
569;DHT22;269;48.884;9.192;2022-09-24T06:24:41;11.40;99.90
569;DHT22;269;48.884;9.192;2022-09-24T06:27:08;11.40;99.90
569;DHT22;269;48.884;9.192;2022-09-24T06:29:36;11.50;99.90
569;DHT22;269;48.884;9.192;2022-09-24T06:32:03;11.50;99.90
569;DHT22;269;48.884;9.192;2022-09-24T06:34:30;11.50;99.90
569;DHT22;269;48.884;9.192;2022-09-24T06:36:57;11.60;99.90
569;DHT22;269;48.884;9.192;2022-09-24T06:39:25;11.60;99.90
569;DHT22;269;48.884;9.192;2022-09-24T06:41:52;11.70;99.90
569;DHT22;269;48.884;9.192;2022-09-24T06:44:19;11.80;99.90
569;DHT22;269;48.884;9.192;2022-09-24T06:46:47;11.80;99.90
569;DHT22;269;48.884;9.192;2022-09-24T06:49:15;11.80;99.90
569;DHT22;269;48.884;9.192;2022-09-24T06:51:42;11.80;99.90
569;DHT22;269;48.884;9.192;2022-09-24T06:54:09;11.90;99.90
569;DHT22;269;48.884;9.192;2022-09-24T06:56:36;11.90;99.90
569;DHT22;269;48.884;9.192;2022-09-24T06:59:03;12.00;99.90
569;DHT22;269;48.884;9.192;2022-09-24T07:01:31;12.10;99.90
569;DHT22;269;48.884;9.192;2022-09-24T07:04:00;12.10;99.90
569;DHT22;269;48.884;9.192;2022-09-24T07:06:27;12.20;99.90
569;DHT22;269;48.884;9.192;2022-09-24T07:09:14;12.30;99.90
569;DHT22;269;48.884;9.192;2022-09-24T07:11:41;12.30;99.90
569;DHT22;269;48.884;9.192;2022-09-24T07:14:11;12.40;99.90
569;DHT22;269;48.884;9.192;2022-09-24T07:16:38;12.50;99.90
569;DHT22;269;48.884;9.192;2022-09-24T07:19:06;12.50;99.90
569;DHT22;269;48.884;9.192;2022-09-24T07:21:34;12.60;99.90
569;DHT22;269;48.884;9.192;2022-09-24T07:24:01;12.70;99.90
569;DHT22;269;48.884;9.192;2022-09-24T07:26:28;12.70;99.90
569;DHT22;269;48.884;9.192;2022-09-24T07:28:55;12.80;99.90
569;DHT22;269;48.884;9.192;2022-09-24T07:31:23;12.80;99.90
569;DHT22;269;48.884;9.192;2022-09-24T07:33:51;12.90;99.90
569;DHT22;269;48.884;9.192;2022-09-24T07:36:20;13.00;99.90
569;DHT22;269;48.884;9.192;2022-09-24T07:38:47;13.20;99.90
569;DHT22;269;48.884;9.192;2022-09-24T07:41:15;13.40;99.90
569;DHT22;269;48.884;9.192;2022-09-24T07:43:42;13.60;99.90
569;DHT22;269;48.884;9.192;2022-09-24T07:46:10;13.80;99.90
569;DHT22;269;48.884;9.192;2022-09-24T07:48:37;14.00;99.90
569;DHT22;269;48.884;9.192;2022-09-24T07:51:04;14.00;99.90
569;DHT22;269;48.884;9.192;2022-09-24T07:53:32;14.10;99.90
569;DHT22;269;48.884;9.192;2022-09-24T07:56:00;14.20;99.90
569;DHT22;269;48.884;9.192;2022-09-24T07:58:27;14.30;99.90
569;DHT22;269;48.884;9.192;2022-09-24T08:00:56;14.20;99.90
569;DHT22;269;48.884;9.192;2022-09-24T08:03:23;14.20;99.90
569;DHT22;269;48.884;9.192;2022-09-24T08:05:50;14.30;99.90
569;DHT22;269;48.884;9.192;2022-09-24T08:08:22;14.20;99.90
569;DHT22;269;48.884;9.192;2022-09-24T08:10:50;14.20;99.90
569;DHT22;269;48.884;9.192;2022-09-24T08:13:17;14.30;99.90
569;DHT22;269;48.884;9.192;2022-09-24T08:15:44;14.40;99.90
569;DHT22;269;48.884;9.192;2022-09-24T08:18:12;14.40;99.90
569;DHT22;269;48.884;9.192;2022-09-24T08:20:39;14.50;99.90
569;DHT22;269;48.884;9.192;2022-09-24T08:23:08;14.60;99.90
569;DHT22;269;48.884;9.192;2022-09-24T08:25:35;14.70;99.90
569;DHT22;269;48.884;9.192;2022-09-24T08:28:04;14.80;99.90
569;DHT22;269;48.884;9.192;2022-09-24T08:30:33;15.00;99.90
569;DHT22;269;48.884;9.192;2022-09-24T08:33:00;15.10;99.90
569;DHT22;269;48.884;9.192;2022-09-24T08:35:29;15.20;99.90
569;DHT22;269;48.884;9.192;2022-09-24T08:37:56;15.30;99.90
569;DHT22;269;48.884;9.192;2022-09-24T08:40:28;15.40;99.90
569;DHT22;269;48.884;9.192;2022-09-24T08:43:01;15.50;99.90
569;DHT22;269;48.884;9.192;2022-09-24T08:45:41;15.70;99.90
569;DHT22;269;48.884;9.192;2022-09-24T08:48:31;15.90;99.90
569;DHT22;269;48.884;9.192;2022-09-24T08:51:01;16.10;99.90
569;DHT22;269;48.884;9.192;2022-09-24T08:53:44;16.20;99.90
569;DHT22;269;48.884;9.192;2022-09-24T08:56:13;16.30;99.90
569;DHT22;269;48.884;9.192;2022-09-24T08:58:48;16.30;99.90
569;DHT22;269;48.884;9.192;2022-09-24T09:01:23;16.50;99.90
569;DHT22;269;48.884;9.192;2022-09-24T09:03:59;16.70;99.90
569;DHT22;269;48.884;9.192;2022-09-24T09:06:51;16.90;99.90
569;DHT22;269;48.884;9.192;2022-09-24T09:09:23;16.90;99.90
569;DHT22;269;48.884;9.192;2022-09-24T09:11:56;16.80;99.90
569;DHT22;269;48.884;9.192;2022-09-24T09:14:37;16.90;99.90
569;DHT22;269;48.884;9.192;2022-09-24T09:17:14;17.00;99.90
569;DHT22;269;48.884;9.192;2022-09-24T09:19:46;17.50;99.90
569;DHT22;269;48.884;9.192;2022-09-24T09:22:16;18.30;99.90
569;DHT22;269;48.884;9.192;2022-09-24T09:24:45;19.00;99.90
569;DHT22;269;48.884;9.192;2022-09-24T09:27:14;19.50;99.90
569;DHT22;269;48.884;9.192;2022-09-24T09:29:44;19.70;99.90
569;DHT22;269;48.884;9.192;2022-09-24T09:32:25;19.80;99.90
569;DHT22;269;48.884;9.192;2022-09-24T09:35:01;19.80;99.90
569;DHT22;269;48.884;9.192;2022-09-24T09:37:39;19.80;99.90
569;DHT22;269;48.884;9.192;2022-09-24T09:40:22;19.60;99.90
569;DHT22;269;48.884;9.192;2022-09-24T09:42:58;19.40;99.90
569;DHT22;269;48.884;9.192;2022-09-24T09:45:32;19.50;99.90
569;DHT22;269;48.884;9.192;2022-09-24T09:48:01;19.70;99.90
569;DHT22;269;48.884;9.192;2022-09-24T09:50:32;19.90;99.90
569;DHT22;269;48.884;9.192;2022-09-24T09:53:02;20.10;99.90
569;DHT22;269;48.884;9.192;2022-09-24T09:55:32;19.90;99.90
569;DHT22;269;48.884;9.192;2022-09-24T09:58:15;19.50;99.90
569;DHT22;269;48.884;9.192;2022-09-24T10:00:44;19.30;99.90
569;DHT22;269;48.884;9.192;2022-09-24T10:03:29;19.10;99.90
569;DHT22;269;48.884;9.192;2022-09-24T10:06:00;18.90;99.90
569;DHT22;269;48.884;9.192;2022-09-24T10:08:28;18.80;99.90
569;DHT22;269;48.884;9.192;2022-09-24T10:10:57;18.80;99.90
569;DHT22;269;48.884;9.192;2022-09-24T10:13:26;18.70;99.90
569;DHT22;269;48.884;9.192;2022-09-24T10:15:54;18.60;99.90
569;DHT22;269;48.884;9.192;2022-09-24T10:18:29;18.60;99.90
569;DHT22;269;48.884;9.192;2022-09-24T10:20:58;18.60;99.90
569;DHT22;269;48.884;9.192;2022-09-24T10:23:33;18.60;99.90
569;DHT22;269;48.884;9.192;2022-09-24T10:26:02;18.40;99.90
569;DHT22;269;48.884;9.192;2022-09-24T10:28:30;18.10;99.90
569;DHT22;269;48.884;9.192;2022-09-24T10:31:19;18.10;99.90
569;DHT22;269;48.884;9.192;2022-09-24T10:33:50;18.10;99.90
569;DHT22;269;48.884;9.192;2022-09-24T10:36:21;18.10;99.90
569;DHT22;269;48.884;9.192;2022-09-24T10:38:48;18.10;99.90
569;DHT22;269;48.884;9.192;2022-09-24T10:41:28;18.00;99.90
569;DHT22;269;48.884;9.192;2022-09-24T10:43:56;17.90;99.90
569;DHT22;269;48.884;9.192;2022-09-24T10:46:45;17.80;99.90
569;DHT22;269;48.884;9.192;2022-09-24T10:49:29;17.70;99.90
569;DHT22;269;48.884;9.192;2022-09-24T10:52:02;17.70;99.90
569;DHT22;269;48.884;9.192;2022-09-24T10:54:45;17.60;99.90
569;DHT22;269;48.884;9.192;2022-09-24T10:57:23;17.50;99.90
569;DHT22;269;48.884;9.192;2022-09-24T11:00:00;17.50;99.90
569;DHT22;269;48.884;9.192;2022-09-24T11:03:01;17.70;99.90
569;DHT22;269;48.884;9.192;2022-09-24T11:05:38;17.60;99.90
569;DHT22;269;48.884;9.192;2022-09-24T11:08:15;17.80;99.90
569;DHT22;269;48.884;9.192;2022-09-24T11:11:02;17.90;99.90
569;DHT22;269;48.884;9.192;2022-09-24T11:13:40;18.30;99.90
569;DHT22;269;48.884;9.192;2022-09-24T11:16:41;18.70;99.90
569;DHT22;269;48.884;9.192;2022-09-24T11:19:19;19.20;99.90
569;DHT22;269;48.884;9.192;2022-09-24T11:22:02;19.60;99.90
569;DHT22;269;48.884;9.192;2022-09-24T11:24:46;19.60;99.90
569;DHT22;269;48.884;9.192;2022-09-24T11:27:40;19.60;99.90
569;DHT22;269;48.884;9.192;2022-09-24T11:30:11;19.60;99.90
569;DHT22;269;48.884;9.192;2022-09-24T11:32:52;19.30;99.90
569;DHT22;269;48.884;9.192;2022-09-24T11:35:38;19.20;99.90
569;DHT22;269;48.884;9.192;2022-09-24T11:38:14;19.10;99.90
569;DHT22;269;48.884;9.192;2022-09-24T11:40:57;19.00;99.90
569;DHT22;269;48.884;9.192;2022-09-24T11:43:47;19.00;99.90
569;DHT22;269;48.884;9.192;2022-09-24T11:46:25;19.00;99.90
569;DHT22;269;48.884;9.192;2022-09-24T11:49:08;18.70;99.90
569;DHT22;269;48.884;9.192;2022-09-24T11:51:48;18.40;99.90
569;DHT22;269;48.884;9.192;2022-09-24T11:54:23;18.20;99.90
569;DHT22;269;48.884;9.192;2022-09-24T11:56:56;18.10;99.90
569;DHT22;269;48.884;9.192;2022-09-24T11:59:34;18.00;99.90
569;DHT22;269;48.884;9.192;2022-09-24T12:02:07;17.90;99.90
569;DHT22;269;48.884;9.192;2022-09-24T12:04:54;17.70;99.90
569;DHT22;269;48.884;9.192;2022-09-24T12:07:25;17.70;99.90
569;DHT22;269;48.884;9.192;2022-09-24T12:10:01;17.70;99.90
569;DHT22;269;48.884;9.192;2022-09-24T12:12:31;17.50;99.90
569;DHT22;269;48.884;9.192;2022-09-24T12:15:04;17.40;99.90
569;DHT22;269;48.884;9.192;2022-09-24T12:17:35;17.50;99.90
569;DHT22;269;48.884;9.192;2022-09-24T12:20:12;17.40;99.90
569;DHT22;269;48.884;9.192;2022-09-24T12:22:46;17.40;99.90
569;DHT22;269;48.884;9.192;2022-09-24T12:25:16;17.30;99.90
569;DHT22;269;48.884;9.192;2022-09-24T12:27:44;17.30;99.90
569;DHT22;269;48.884;9.192;2022-09-24T12:30:25;17.30;99.90
569;DHT22;269;48.884;9.192;2022-09-24T12:33:16;17.30;99.90
569;DHT22;269;48.884;9.192;2022-09-24T12:35:54;17.30;99.90
569;DHT22;269;48.884;9.192;2022-09-24T12:38:27;17.30;99.90
569;DHT22;269;48.884;9.192;2022-09-24T12:41:26;17.30;99.90
569;DHT22;269;48.884;9.192;2022-09-24T12:43:58;17.30;99.90
569;DHT22;269;48.884;9.192;2022-09-24T12:46:31;17.20;99.90
569;DHT22;269;48.884;9.192;2022-09-24T12:49:01;17.40;99.90
569;DHT22;269;48.884;9.192;2022-09-24T12:51:35;17.20;99.90
569;DHT22;269;48.884;9.192;2022-09-24T12:54:19;17.40;99.90
569;DHT22;269;48.884;9.192;2022-09-24T12:56:50;17.10;99.90
569;DHT22;269;48.884;9.192;2022-09-24T12:59:24;17.10;99.90
569;DHT22;269;48.884;9.192;2022-09-24T13:01:52;17.00;99.90
569;DHT22;269;48.884;9.192;2022-09-24T13:04:27;17.00;99.90
569;DHT22;269;48.884;9.192;2022-09-24T13:06:54;17.10;99.90
569;DHT22;269;48.884;9.192;2022-09-24T13:09:37;17.10;99.90
569;DHT22;269;48.884;9.192;2022-09-24T13:12:20;17.10;99.90
569;DHT22;269;48.884;9.192;2022-09-24T13:14:53;17.10;99.90
569;DHT22;269;48.884;9.192;2022-09-24T13:17:22;17.10;99.90
569;DHT22;269;48.884;9.192;2022-09-24T13:19:56;17.10;99.90
569;DHT22;269;48.884;9.192;2022-09-24T13:22:29;17.20;99.90
569;DHT22;269;48.884;9.192;2022-09-24T13:25:21;17.30;99.90
569;DHT22;269;48.884;9.192;2022-09-24T13:27:58;17.40;99.90
569;DHT22;269;48.884;9.192;2022-09-24T13:30:33;17.50;99.90
569;DHT22;269;48.884;9.192;2022-09-24T13:33:08;17.60;99.90
569;DHT22;269;48.884;9.192;2022-09-24T13:35:43;17.70;99.90
569;DHT22;269;48.884;9.192;2022-09-24T13:38:17;17.70;99.90
569;DHT22;269;48.884;9.192;2022-09-24T13:40:50;17.60;99.90
569;DHT22;269;48.884;9.192;2022-09-24T13:43:36;17.70;99.90
569;DHT22;269;48.884;9.192;2022-09-24T13:46:09;17.70;99.90
569;DHT22;269;48.884;9.192;2022-09-24T13:48:41;17.70;99.90
569;DHT22;269;48.884;9.192;2022-09-24T13:51:11;17.80;99.90
569;DHT22;269;48.884;9.192;2022-09-24T13:53:42;17.70;99.90
569;DHT22;269;48.884;9.192;2022-09-24T13:56:12;17.60;99.90
569;DHT22;269;48.884;9.192;2022-09-24T13:58:41;17.70;99.90
569;DHT22;269;48.884;9.192;2022-09-24T14:01:14;17.70;99.90
569;DHT22;269;48.884;9.192;2022-09-24T14:03:50;17.70;99.90
569;DHT22;269;48.884;9.192;2022-09-24T14:06:19;17.70;99.90
569;DHT22;269;48.884;9.192;2022-09-24T14:08:48;17.70;99.90
569;DHT22;269;48.884;9.192;2022-09-24T14:11:20;17.70;99.90
569;DHT22;269;48.884;9.192;2022-09-24T14:13:51;17.60;99.90
569;DHT22;269;48.884;9.192;2022-09-24T14:16:21;17.30;99.90
569;DHT22;269;48.884;9.192;2022-09-24T14:19:00;17.20;99.90
569;DHT22;269;48.884;9.192;2022-09-24T14:21:31;17.10;99.90
569;DHT22;269;48.884;9.192;2022-09-24T14:24:03;17.10;99.90
569;DHT22;269;48.884;9.192;2022-09-24T14:26:33;17.10;99.90
569;DHT22;269;48.884;9.192;2022-09-24T14:29:06;17.20;99.90
569;DHT22;269;48.884;9.192;2022-09-24T14:31:42;17.20;99.90
569;DHT22;269;48.884;9.192;2022-09-24T14:34:24;17.20;99.90
569;DHT22;269;48.884;9.192;2022-09-24T14:36:54;16.90;99.90
569;DHT22;269;48.884;9.192;2022-09-24T14:39:24;16.80;99.90
569;DHT22;269;48.884;9.192;2022-09-24T14:41:54;16.80;99.90
569;DHT22;269;48.884;9.192;2022-09-24T14:44:25;16.80;99.90
569;DHT22;269;48.884;9.192;2022-09-24T14:46:55;16.80;99.90
569;DHT22;269;48.884;9.192;2022-09-24T14:49:26;16.80;99.90
569;DHT22;269;48.884;9.192;2022-09-24T14:51:55;16.80;99.90
569;DHT22;269;48.884;9.192;2022-09-24T14:54:27;16.80;99.90
569;DHT22;269;48.884;9.192;2022-09-24T14:57:08;16.80;99.90
569;DHT22;269;48.884;9.192;2022-09-24T14:59:38;17.00;99.90
569;DHT22;269;48.884;9.192;2022-09-24T15:02:15;17.10;99.90
569;DHT22;269;48.884;9.192;2022-09-24T15:04:45;17.30;99.90
569;DHT22;269;48.884;9.192;2022-09-24T15:07:15;17.20;99.90
569;DHT22;269;48.884;9.192;2022-09-24T15:09:48;17.30;99.90
569;DHT22;269;48.884;9.192;2022-09-24T15:12:19;17.30;99.90
569;DHT22;269;48.884;9.192;2022-09-24T15:14:56;17.30;99.90
569;DHT22;269;48.884;9.192;2022-09-24T15:17:29;17.20;99.90
569;DHT22;269;48.884;9.192;2022-09-24T15:19:56;17.30;99.90
569;DHT22;269;48.884;9.192;2022-09-24T15:22:24;17.40;99.90
569;DHT22;269;48.884;9.192;2022-09-24T15:24:52;17.00;99.90
569;DHT22;269;48.884;9.192;2022-09-24T15:27:22;16.90;99.90
569;DHT22;269;48.884;9.192;2022-09-24T15:29:53;16.90;99.90
569;DHT22;269;48.884;9.192;2022-09-24T15:32:23;16.80;99.90
569;DHT22;269;48.884;9.192;2022-09-24T15:34:55;17.00;99.90
569;DHT22;269;48.884;9.192;2022-09-24T15:37:25;17.70;99.90
569;DHT22;269;48.884;9.192;2022-09-24T15:39:56;18.40;99.90
569;DHT22;269;48.884;9.192;2022-09-24T15:42:25;18.80;99.90
569;DHT22;269;48.884;9.192;2022-09-24T15:44:53;18.90;99.90
569;DHT22;269;48.884;9.192;2022-09-24T15:47:21;18.90;99.90
569;DHT22;269;48.884;9.192;2022-09-24T15:49:48;18.80;99.90
569;DHT22;269;48.884;9.192;2022-09-24T15:52:18;18.50;99.90
569;DHT22;269;48.884;9.192;2022-09-24T15:54:49;18.30;99.90
569;DHT22;269;48.884;9.192;2022-09-24T15:57:16;18.00;99.90
569;DHT22;269;48.884;9.192;2022-09-24T15:59:44;17.80;99.90
569;DHT22;269;48.884;9.192;2022-09-24T16:02:16;17.50;99.90
569;DHT22;269;48.884;9.192;2022-09-24T16:04:45;17.40;99.90
569;DHT22;269;48.884;9.192;2022-09-24T16:07:12;17.40;99.90
569;DHT22;269;48.884;9.192;2022-09-24T16:09:39;17.20;99.90
569;DHT22;269;48.884;9.192;2022-09-24T16:12:06;17.20;99.90
569;DHT22;269;48.884;9.192;2022-09-24T16:14:33;17.10;99.90
569;DHT22;269;48.884;9.192;2022-09-24T16:17:00;17.00;99.90
569;DHT22;269;48.884;9.192;2022-09-24T16:19:29;16.80;99.90
569;DHT22;269;48.884;9.192;2022-09-24T16:21:56;16.70;99.90
569;DHT22;269;48.884;9.192;2022-09-24T16:24:24;16.60;99.90
569;DHT22;269;48.884;9.192;2022-09-24T16:26:51;16.60;99.90
569;DHT22;269;48.884;9.192;2022-09-24T16:29:19;16.50;99.90
569;DHT22;269;48.884;9.192;2022-09-24T16:31:46;16.40;99.90
569;DHT22;269;48.884;9.192;2022-09-24T16:34:14;16.30;99.90
569;DHT22;269;48.884;9.192;2022-09-24T16:36:42;16.20;99.90
569;DHT22;269;48.884;9.192;2022-09-24T16:39:09;16.20;99.90
569;DHT22;269;48.884;9.192;2022-09-24T16:41:37;16.20;99.90
569;DHT22;269;48.884;9.192;2022-09-24T16:44:04;16.20;99.90
569;DHT22;269;48.884;9.192;2022-09-24T16:46:32;16.00;99.90
569;DHT22;269;48.884;9.192;2022-09-24T16:48:59;16.00;99.90
569;DHT22;269;48.884;9.192;2022-09-24T16:51:26;15.90;99.90
569;DHT22;269;48.884;9.192;2022-09-24T16:53:55;15.90;99.90
569;DHT22;269;48.884;9.192;2022-09-24T16:56:22;15.70;99.90
569;DHT22;269;48.884;9.192;2022-09-24T16:58:50;15.70;99.90
569;DHT22;269;48.884;9.192;2022-09-24T17:01:18;15.60;99.90
569;DHT22;269;48.884;9.192;2022-09-24T17:03:50;15.50;99.90